Time;durP1;ratioP1;P1;durP2;ratioP2;P2;SDS_P1;SDS_P2;PMS_P1;PMS_P2;Temp;Humidity;BMP_temperature;BMP_pressure;BME280_temperature;BME280_humidity;BME280_pressure;Samples;Min_cycle;Max_cycle;Signal;HPM_P1;HPM_P2
2023/05/01 00:00:50;;;;;;;6.80;3.40;;;9.90;98.00;;;;;;5072171;28;20462;-66
2023/05/01 00:03:18;;;;;;;6.97;3.47;;;9.90;98.00;;;;;;5072213;28;20575;-66
2023/05/01 00:05:47;;;;;;;9.43;3.50;;;10.00;98.00;;;;;;5072102;28;20469;-66
2023/05/01 00:08:14;;;;;;;8.73;3.70;;;10.00;98.00;;;;;;5072178;28;20456;-66
2023/05/01 00:10:42;;;;;;;5.93;3.30;;;10.00;98.00;;;;;;5071016;28;20452;-66
2023/05/01 00:13:10;;;;;;;6.10;3.30;;;10.00;98.00;;;;;;5072086;28;20451;-66
2023/05/01 00:15:37;;;;;;;6.83;3.47;;;9.80;98.00;;;;;;5072301;28;20880;-66
2023/05/01 00:18:04;;;;;;;4.93;3.03;;;9.90;98.00;;;;;;5072265;28;20476;-66
2023/05/01 00:20:31;;;;;;;7.53;3.30;;;10.00;98.00;;;;;;5071762;28;20452;-66
2023/05/01 00:22:59;;;;;;;3.93;2.77;;;9.90;98.00;;;;;;5071960;28;20462;-66
2023/05/01 00:25:27;;;;;;;6.87;3.80;;;9.90;98.00;;;;;;5071632;28;20454;-66
2023/05/01 00:27:54;;;;;;;5.97;3.40;;;9.80;98.00;;;;;;5071093;28;20860;-66
2023/05/01 00:30:22;;;;;;;6.40;3.53;;;9.80;98.00;;;;;;5071629;28;20449;-66
2023/05/01 00:32:49;;;;;;;7.37;3.97;;;9.90;98.00;;;;;;5071536;28;20499;-66
2023/05/01 00:35:16;;;;;;;7.70;3.90;;;9.90;98.00;;;;;;5071464;28;20453;-66
2023/05/01 00:37:43;;;;;;;8.33;3.30;;;9.90;98.00;;;;;;5071548;28;20573;-66
2023/05/01 00:40:12;;;;;;;7.20;3.50;;;9.90;98.00;;;;;;5071473;28;20512;-66
2023/05/01 00:42:39;;;;;;;7.03;3.27;;;9.80;98.00;;;;;;5071293;28;20460;-66
2023/05/01 00:45:08;;;;;;;8.50;3.70;;;9.80;98.00;;;;;;5069526;28;20459;-66
2023/05/01 00:47:36;;;;;;;6.10;3.50;;;9.80;98.00;;;;;;5071386;28;20987;-66
2023/05/01 00:50:04;;;;;;;5.60;3.30;;;9.70;98.00;;;;;;5071334;28;20458;-66
2023/05/01 00:52:31;;;;;;;8.43;3.73;;;9.70;98.00;;;;;;5071329;28;20452;-66
2023/05/01 00:54:58;;;;;;;6.87;3.70;;;9.60;98.00;;;;;;5071322;28;20527;-66
2023/05/01 00:57:27;;;;;;;7.33;3.40;;;9.60;98.00;;;;;;5071121;28;20482;-66
2023/05/01 00:59:54;;;;;;;4.83;3.03;;;9.60;98.00;;;;;;5071161;28;20820;-66
2023/05/01 01:02:21;;;;;;;9.20;3.50;;;9.60;98.00;;;;;;5071228;28;20451;-66
2023/05/01 01:04:49;;;;;;;7.37;3.43;;;9.60;98.00;;;;;;5071290;28;20452;-66
2023/05/01 01:07:23;;;;;;;18.53;3.83;;;9.60;98.00;;;;;;5071285;28;20456;-66
2023/05/01 01:10:13;;;;;;;6.33;3.73;;;9.50;98.00;;;;;;5071247;28;20456;-66
2023/05/01 01:12:50;;;;;;;5.87;3.20;;;9.50;98.00;;;;;;5071659;28;20453;-66
2023/05/01 01:15:26;;;;;;;9.50;3.90;;;9.60;98.00;;;;;;5071128;28;20523;-66
2023/05/01 01:17:59;;;;;;;5.60;2.93;;;9.70;98.00;;;;;;5071198;28;20483;-66
2023/05/01 01:20:40;;;;;;;7.70;3.90;;;9.60;98.00;;;;;;5070960;28;20461;-66
2023/05/01 01:23:39;;;;;;;5.83;3.20;;;9.60;98.00;;;;;;5070499;28;20452;-66
2023/05/01 01:26:37;;;;;;;7.60;3.47;;;9.60;98.00;;;;;;5070787;28;20466;-66
2023/05/01 01:29:43;;;;;;;5.20;3.30;;;9.60;98.00;;;;;;5070913;28;20515;-66
2023/05/01 01:32:37;;;;;;;8.67;3.37;;;9.60;98.00;;;;;;5070942;28;20468;-66
2023/05/01 01:35:10;;;;;;;5.60;3.07;;;9.50;98.00;;;;;;5070709;28;20455;-66
2023/05/01 01:37:44;;;;;;;8.43;3.60;;;9.60;98.00;;;;;;5070763;28;20489;-66
2023/05/01 01:40:15;;;;;;;7.50;3.50;;;9.60;98.00;;;;;;5074139;28;20459;-66
2023/05/01 01:42:49;;;;;;;5.57;3.47;;;9.50;98.00;;;;;;5075004;28;20535;-66
2023/05/01 01:45:22;;;;;;;9.70;4.17;;;9.50;98.00;;;;;;5074639;28;20483;-66
2023/05/01 01:47:51;;;;;;;5.20;3.60;;;9.50;98.00;;;;;;5074769;28;20505;-66
2023/05/01 01:50:22;;;;;;;5.90;3.47;;;9.50;98.00;;;;;;5073459;28;20519;-66
2023/05/01 01:52:51;;;;;;;6.90;3.47;;;9.60;98.00;;;;;;5074801;28;20461;-66
2023/05/01 01:55:24;;;;;;;13.90;4.17;;;9.50;98.00;;;;;;5074542;28;20460;-65
2023/05/01 01:57:52;;;;;;;9.07;3.47;;;9.50;98.00;;;;;;5074414;28;20477;-66
2023/05/01 02:00:21;;;;;;;8.53;3.03;;;9.40;98.00;;;;;;5074404;28;20462;-66
2023/05/01 02:02:49;;;;;;;8.97;4.10;;;9.40;98.00;;;;;;5074336;28;20531;-66
2023/05/01 02:05:18;;;;;;;5.87;3.17;;;9.30;98.00;;;;;;5074618;28;20845;-66
2023/05/01 02:07:50;;;;;;;8.03;3.80;;;9.40;98.00;;;;;;5074762;28;20484;-66
2023/05/01 02:10:18;;;;;;;8.27;3.83;;;9.40;98.00;;;;;;5073165;28;20465;-66
2023/05/01 02:12:47;;;;;;;7.30;3.23;;;9.50;98.00;;;;;;5074639;28;20459;-66
2023/05/01 02:15:16;;;;;;;6.37;3.30;;;9.70;98.00;;;;;;5074113;28;20499;-66
2023/05/01 02:17:44;;;;;;;6.20;3.23;;;9.70;98.00;;;;;;5074197;28;20478;-66
2023/05/01 02:20:13;;;;;;;5.33;3.30;;;9.70;98.00;;;;;;5072891;28;20466;-66
2023/05/01 02:22:41;;;;;;;8.17;3.80;;;9.50;98.00;;;;;;5074106;28;20452;-66
2023/05/01 02:25:12;;;;;;;6.90;3.50;;;9.50;98.00;;;;;;5073848;28;20460;-66
2023/05/01 02:27:44;;;;;;;6.83;2.93;;;9.40;98.00;;;;;;5074057;28;20924;-66
2023/05/01 02:30:12;;;;;;;7.97;4.10;;;9.40;98.00;;;;;;5073937;28;20448;-66
2023/05/01 02:32:40;;;;;;;8.33;3.50;;;9.40;98.00;;;;;;5073862;28;20457;-66
2023/05/01 02:35:07;;;;;;;5.07;3.03;;;9.40;98.00;;;;;;5073765;28;20540;-66
2023/05/01 02:37:34;;;;;;;6.80;3.27;;;9.30;98.00;;;;;;5073460;28;20468;-66
2023/05/01 02:40:03;;;;;;;5.73;3.10;;;9.30;98.00;;;;;;5072501;28;20458;-66
2023/05/01 02:42:34;;;;;;;5.10;3.40;;;9.40;98.00;;;;;;5073738;28;20456;-66
2023/05/01 02:45:04;;;;;;;5.80;3.20;;;9.50;98.00;;;;;;5073672;28;20859;-66
2023/05/01 02:47:37;;;;;;;7.67;3.23;;;9.60;98.00;;;;;;5073936;28;20867;-66
2023/05/01 02:50:06;;;;;;;7.50;3.73;;;9.60;98.00;;;;;;5072695;28;20458;-66
2023/05/01 02:52:34;;;;;;;7.30;3.50;;;9.70;98.00;;;;;;5073570;28;20470;-65
2023/05/01 02:55:02;;;;;;;6.93;3.50;;;9.80;98.00;;;;;;5073657;28;20467;-66
2023/05/01 02:57:29;;;;;;;5.37;3.60;;;9.80;98.00;;;;;;5073428;28;20457;-66
2023/05/01 02:59:58;;;;;;;7.53;3.40;;;9.80;98.00;;;;;;5072410;28;20820;-66
2023/05/01 03:02:25;;;;;;;6.43;3.60;;;9.80;98.00;;;;;;5073701;28;20453;-66
2023/05/01 03:04:52;;;;;;;7.10;3.80;;;9.80;98.00;;;;;;5073413;28;20459;-66
2023/05/01 03:07:20;;;;;;;6.83;3.10;;;9.80;98.00;;;;;;5073438;28;20532;-65
2023/05/01 03:09:48;;;;;;;6.70;3.50;;;9.80;98.00;;;;;;5073282;28;20461;-66
2023/05/01 03:12:15;;;;;;;7.47;3.70;;;9.80;98.00;;;;;;5073228;28;20481;-66
2023/05/01 03:14:42;;;;;;;10.97;3.70;;;9.80;98.00;;;;;;5073288;28;20454;-66
2023/05/01 03:17:12;;;;;;;6.10;3.20;;;9.90;98.00;;;;;;5073017;28;20949;-66
2023/05/01 03:19:41;;;;;;;4.97;3.27;;;9.80;98.00;;;;;;5073181;28;20848;-66
2023/05/01 03:22:08;;;;;;;8.53;4.10;;;9.90;98.00;;;;;;5073065;28;20474;-66
2023/05/01 03:24:35;;;;;;;6.80;3.60;;;9.90;98.00;;;;;;5072813;28;20973;-66
2023/05/01 03:27:02;;;;;;;8.60;3.57;;;10.00;98.00;;;;;;5071723;28;20457;-66
2023/05/01 03:29:29;;;;;;;6.47;3.23;;;10.00;98.00;;;;;;5072814;28;20492;-66
2023/05/01 03:31:57;;;;;;;9.93;3.90;;;9.90;98.00;;;;;;5072939;28;20448;-66
2023/05/01 03:34:25;;;;;;;7.63;3.57;;;9.90;98.00;;;;;;5072726;28;20919;-66
2023/05/01 03:36:53;;;;;;;5.90;3.50;;;9.80;98.00;;;;;;5072859;28;20846;-66
2023/05/01 03:39:20;;;;;;;8.20;4.30;;;9.80;98.00;;;;;;5072579;28;20495;-66
2023/05/01 03:41:48;;;;;;;7.57;3.80;;;9.80;98.00;;;;;;5072686;28;20654;-65
2023/05/01 03:44:15;;;;;;;6.90;3.20;;;9.80;98.00;;;;;;5072609;28;20960;-66
2023/05/01 03:46:43;;;;;;;7.57;3.40;;;9.90;98.00;;;;;;5071520;28;20870;-66
2023/05/01 03:49:10;;;;;;;6.37;3.63;;;9.90;98.00;;;;;;5072487;28;20457;-66
2023/05/01 03:51:38;;;;;;;5.70;3.30;;;10.00;98.00;;;;;;5072762;28;20460;-66
2023/05/01 03:54:06;;;;;;;9.03;3.53;;;10.10;98.00;;;;;;5072699;28;20461;-66
2023/05/01 03:56:34;;;;;;;6.90;3.23;;;10.10;98.00;;;;;;5071406;28;20456;-66
2023/05/01 03:59:01;;;;;;;6.40;3.43;;;10.20;98.00;;;;;;5072522;28;20485;-66
2023/05/01 04:01:28;;;;;;;5.40;3.33;;;10.10;98.00;;;;;;5072437;28;20457;-66
2023/05/01 04:03:56;;;;;;;8.53;3.80;;;10.10;98.00;;;;;;5072618;28;20949;-66
2023/05/01 04:06:23;;;;;;;7.40;3.40;;;10.00;98.00;;;;;;5071962;28;20452;-66
2023/05/01 04:08:52;;;;;;;5.90;3.20;;;10.00;98.00;;;;;;5072284;28;20964;-66
2023/05/01 04:11:19;;;;;;;5.10;3.07;;;10.00;98.00;;;;;;5071948;28;20449;-66
2023/05/01 04:13:46;;;;;;;8.37;3.87;;;10.00;98.00;;;;;;5073187;28;20460;-66
2023/05/01 04:16:13;;;;;;;5.83;3.67;;;10.00;98.00;;;;;;5072700;28;20524;-66
2023/05/01 04:18:40;;;;;;;6.90;4.03;;;10.00;98.00;;;;;;5072285;28;20489;-66
2023/05/01 04:21:08;;;;;;;8.23;3.70;;;10.10;98.00;;;;;;5073050;28;20491;-65
2023/05/01 04:23:35;;;;;;;9.47;4.23;;;10.10;98.00;;;;;;5070716;28;20517;-66
2023/05/01 04:26:04;;;;;;;16.63;3.53;;;10.10;98.00;;;;;;5071626;28;20460;-66
2023/05/01 04:28:31;;;;;;;8.83;4.10;;;10.10;98.00;;;;;;5071618;28;20823;-66
2023/05/01 04:30:58;;;;;;;5.90;3.20;;;10.00;98.00;;;;;;5071706;28;20954;-66
2023/05/01 04:33:27;;;;;;;7.83;3.83;;;9.90;98.00;;;;;;5071771;28;20445;-66
2023/05/01 04:35:54;;;;;;;8.27;3.73;;;10.00;98.00;;;;;;5070603;28;20847;-66
2023/05/01 04:38:21;;;;;;;5.20;3.17;;;10.10;98.00;;;;;;5071514;28;20547;-66
2023/05/01 04:40:48;;;;;;;7.83;3.50;;;10.10;98.00;;;;;;5071446;28;20965;-66
2023/05/01 04:43:17;;;;;;;8.10;4.03;;;10.00;98.00;;;;;;5071598;28;20463;-65
2023/05/01 04:45:44;;;;;;;8.07;4.03;;;10.10;98.00;;;;;;5071614;28;20527;-66
2023/05/01 04:48:11;;;;;;;5.43;3.20;;;10.10;98.00;;;;;;5071511;28;20454;-66
2023/05/01 04:50:38;;;;;;;6.40;3.60;;;10.20;98.00;;;;;;5071647;28;20453;-65
2023/05/01 04:53:06;;;;;;;9.80;4.50;;;10.20;98.00;;;;;;5071635;28;20457;-66
2023/05/01 04:55:33;;;;;;;7.00;3.80;;;10.30;98.00;;;;;;5071553;28;20946;-66
2023/05/01 04:58:02;;;;;;;6.93;3.40;;;10.20;98.00;;;;;;5071354;28;20526;-66
2023/05/01 05:00:31;;;;;;;8.60;3.80;;;10.20;98.00;;;;;;5070823;28;20495;-66
2023/05/01 05:02:58;;;;;;;10.30;4.07;;;10.40;98.00;;;;;;5070288;28;20847;-66
2023/05/01 05:05:26;;;;;;;5.23;3.10;;;10.40;98.00;;;;;;5071132;28;20460;-66
2023/05/01 05:07:53;;;;;;;7.33;4.00;;;10.60;98.00;;;;;;5071204;28;20464;-66
2023/05/01 05:10:20;;;;;;;6.90;3.37;;;10.50;98.00;;;;;;5071120;28;20457;-66
2023/05/01 05:12:47;;;;;;;6.37;3.57;;;10.60;98.00;;;;;;5071218;28;20882;-66
2023/05/01 05:15:15;;;;;;;7.17;3.50;;;10.60;98.00;;;;;;5070977;28;20454;-66
2023/05/01 05:17:44;;;;;;;5.00;3.17;;;10.60;98.00;;;;;;5071143;28;20456;-66
2023/05/01 05:20:11;;;;;;;5.70;3.50;;;10.70;98.00;;;;;;5070673;28;20480;-66
2023/05/01 05:22:39;;;;;;;6.00;3.10;;;10.70;98.00;;;;;;5071033;28;20816;-66
2023/05/01 05:25:06;;;;;;;5.60;3.40;;;10.80;98.00;;;;;;5071138;28;20457;-66
2023/05/01 05:27:36;;;;;;;5.73;3.27;;;10.90;98.00;;;;;;5070952;28;20967;-66
2023/05/01 05:30:04;;;;;;;6.70;3.60;;;10.90;98.00;;;;;;5071091;28;20507;-65
2023/05/01 05:32:31;;;;;;;7.57;3.70;;;11.00;98.00;;;;;;5070714;28;20478;-66
2023/05/01 05:35:00;;;;;;;5.60;3.60;;;11.00;98.00;;;;;;5070849;28;20460;-66
2023/05/01 05:37:27;;;;;;;4.37;3.10;;;11.00;98.00;;;;;;5070914;28;20459;-66
2023/05/01 05:39:54;;;;;;;8.20;4.00;;;11.10;98.00;;;;;;5070715;28;20534;-66
2023/05/01 05:42:21;;;;;;;7.27;3.97;;;11.10;98.00;;;;;;5070915;28;20467;-66
2023/05/01 05:44:48;;;;;;;6.07;3.50;;;11.10;98.00;;;;;;5070812;28;20461;-66
2023/05/01 05:47:17;;;;;;;5.77;3.60;;;11.20;98.00;;;;;;5071002;28;20449;-66
2023/05/01 05:49:44;;;;;;;7.40;3.93;;;11.20;98.00;;;;;;5070939;28;20453;-66
2023/05/01 05:52:13;;;;;;;5.60;3.47;;;11.20;98.00;;;;;;5070842;28;20986;-66
2023/05/01 05:54:40;;;;;;;6.90;3.63;;;11.30;98.00;;;;;;5070722;28;20461;-66
2023/05/01 05:57:07;;;;;;;6.97;3.57;;;11.40;98.00;;;;;;5070598;28;20516;-66
2023/05/01 05:59:35;;;;;;;6.70;3.80;;;11.40;98.00;;;;;;5070480;28;20489;-66
2023/05/01 06:02:02;;;;;;;11.50;4.53;;;11.40;98.00;;;;;;5070753;28;20975;-61
2023/05/01 06:04:29;;;;;;;5.77;3.27;;;11.40;98.00;;;;;;5070769;28;20453;-61
2023/05/01 06:06:56;;;;;;;6.07;3.50;;;11.40;98.00;;;;;;5070721;28;20836;-61
2023/05/01 06:09:25;;;;;;;6.20;3.37;;;11.50;98.00;;;;;;5070590;28;20517;-61
2023/05/01 06:11:52;;;;;;;10.40;3.70;;;11.40;98.00;;;;;;5070605;28;20463;-61
2023/05/01 06:14:19;;;;;;;7.17;3.50;;;11.50;98.00;;;;;;5070400;28;20457;-61
2023/05/01 06:16:46;;;;;;;7.60;3.00;;;11.50;98.00;;;;;;5070774;28;20462;-61
2023/05/01 06:19:16;;;;;;;4.70;2.90;;;11.50;98.00;;;;;;5070440;28;20843;-61
2023/05/01 06:21:43;;;;;;;4.30;2.67;;;11.50;98.00;;;;;;5070509;28;20971;-61
2023/05/01 06:24:11;;;;;;;4.83;3.23;;;11.50;98.00;;;;;;5070529;28;20453;-61
2023/05/01 06:26:39;;;;;;;6.23;3.70;;;11.60;98.00;;;;;;5072928;28;20508;-61
2023/05/01 06:29:06;;;;;;;5.70;3.07;;;11.80;98.00;;;;;;5074060;28;20457;-61
2023/05/01 06:31:34;;;;;;;4.77;2.80;;;11.90;98.00;;;;;;5074011;28;20511;-61
2023/05/01 06:34:01;;;;;;;10.90;4.17;;;11.80;98.00;;;;;;5074200;28;20460;-61
2023/05/01 06:36:28;;;;;;;6.07;3.13;;;12.00;98.00;;;;;;5073777;28;20554;-61
2023/05/01 06:38:55;;;;;;;8.40;3.50;;;12.10;98.00;;;;;;5072792;28;20518;-61
2023/05/01 06:41:24;;;;;;;7.20;3.30;;;11.90;98.00;;;;;;5074035;28;20459;-61
2023/05/01 06:43:53;;;;;;;5.20;3.30;;;11.80;98.00;;;;;;5074161;28;20458;-61
2023/05/01 06:46:20;;;;;;;5.10;3.00;;;12.00;98.00;;;;;;5073724;28;20538;-61
2023/05/01 06:48:47;;;;;;;5.23;2.93;;;12.00;98.00;;;;;;5073894;28;20481;-62
2023/05/01 06:51:14;;;;;;;5.27;3.00;;;12.10;98.00;;;;;;5073699;28;20457;-61
2023/05/01 06:53:43;;;;;;;6.10;3.30;;;12.10;98.00;;;;;;5073688;28;20548;-62
2023/05/01 06:56:10;;;;;;;5.73;2.90;;;12.10;98.00;;;;;;5072192;28;20466;-61
2023/05/01 06:58:38;;;;;;;7.43;3.20;;;12.10;98.00;;;;;;5073546;28;20474;-62
2023/05/01 07:01:07;;;;;;;5.93;3.37;;;12.10;98.00;;;;;;5072220;28;20486;-61
2023/05/01 07:03:35;;;;;;;9.13;3.80;;;12.20;98.00;;;;;;5073514;28;20451;-61
2023/05/01 07:06:02;;;;;;;4.30;2.97;;;12.30;98.00;;;;;;5073382;28;20454;-61
2023/05/01 07:08:30;;;;;;;5.70;3.50;;;12.20;98.00;;;;;;5073190;28;20467;-61
2023/05/01 07:10:57;;;;;;;6.63;3.77;;;12.10;98.00;;;;;;5073310;28;20777;-61
2023/05/01 07:13:25;;;;;;;7.63;4.23;;;12.10;98.00;;;;;;5073135;28;20453;-61
2023/05/01 07:15:52;;;;;;;9.97;5.00;;;12.00;98.00;;;;;;5073173;28;20951;-61
2023/05/01 07:18:21;;;;;;;14.87;4.10;;;12.10;98.00;;;;;;5073203;28;20474;-61
2023/05/01 07:20:49;;;;;;;7.27;3.57;;;12.10;98.00;;;;;;5072912;28;20552;-61
2023/05/01 07:23:16;;;;;;;7.83;4.30;;;12.20;98.00;;;;;;5072968;28;20459;-61
2023/05/01 07:28:25;;;;;;;8.57;4.20;;;12.30;98.00;;;;;;5072873;28;20958;-61
2023/05/01 07:30:52;;;;;;;7.03;4.20;;;12.40;98.00;;;;;;5073268;28;20840;-61
2023/05/01 07:33:20;;;;;;;6.70;3.87;;;12.30;98.00;;;;;;5072903;28;20447;-62
2023/05/01 07:35:47;;;;;;;8.00;4.23;;;12.20;98.00;;;;;;5072899;28;20504;-61
2023/05/01 07:38:16;;;;;;;8.00;4.00;;;12.40;98.00;;;;;;5071643;28;20461;-61
2023/05/01 07:40:43;;;;;;;6.10;4.10;;;12.60;98.00;;;;;;5072702;28;20489;-61
2023/05/01 07:43:11;;;;;;;7.47;3.83;;;12.60;98.00;;;;;;5072815;28;20451;-61
2023/05/01 07:45:38;;;;;;;9.47;4.50;;;12.60;98.00;;;;;;5072603;28;21007;-62
2023/05/01 07:48:05;;;;;;;9.90;4.30;;;12.60;98.00;;;;;;5072533;28;20456;-62
2023/05/01 07:50:34;;;;;;;8.23;4.10;;;12.50;98.00;;;;;;5072516;28;20470;-61
2023/05/01 07:53:01;;;;;;;12.83;4.03;;;12.70;98.00;;;;;;5072512;28;20987;-62
2023/05/01 07:55:29;;;;;;;8.90;4.17;;;12.70;98.00;;;;;;5072303;28;20463;-61
2023/05/01 07:57:56;;;;;;;8.93;4.30;;;12.70;98.00;;;;;;5072207;28;20477;-61
2023/05/01 08:00:23;;;;;;;8.70;4.53;;;12.80;98.00;;;;;;5072076;28;20486;-61
2023/05/01 08:02:52;;;;;;;11.93;4.00;;;12.90;98.00;;;;;;5072191;28;20465;-61
2023/05/01 08:05:19;;;;;;;7.07;4.10;;;13.00;98.00;;;;;;5072183;28;20484;-61
2023/05/01 08:07:48;;;;;;;10.73;4.33;;;13.20;98.00;;;;;;5072282;28;20461;-61
2023/05/01 08:10:15;;;;;;;6.67;3.70;;;13.30;98.00;;;;;;5071988;28;20456;-61
2023/05/01 08:12:42;;;;;;;7.13;3.77;;;13.40;98.00;;;;;;5070988;28;20464;-61
2023/05/01 08:15:10;;;;;;;7.20;3.87;;;13.40;98.00;;;;;;5071968;28;20463;-61
2023/05/01 08:17:37;;;;;;;6.93;4.10;;;13.50;98.00;;;;;;5070785;28;20464;-61
2023/05/01 08:20:05;;;;;;;7.43;3.97;;;13.60;98.00;;;;;;5071516;28;20555;-61
2023/05/01 08:22:32;;;;;;;8.80;4.70;;;13.60;98.00;;;;;;5071968;28;20523;-61
2023/05/01 08:25:01;;;;;;;7.40;3.87;;;13.50;98.00;;;;;;5070822;28;20461;-61
2023/05/01 08:27:28;;;;;;;7.40;3.90;;;13.60;98.00;;;;;;5070609;28;20484;-61
2023/05/01 08:29:55;;;;;;;8.10;3.70;;;13.60;98.00;;;;;;5071910;28;20963;-61
2023/05/01 08:32:22;;;;;;;9.80;4.23;;;13.80;98.00;;;;;;5072038;28;20883;-62
2023/05/01 08:34:49;;;;;;;5.90;3.90;;;13.80;98.00;;;;;;5071807;28;20459;-62
2023/05/01 08:37:17;;;;;;;9.80;4.23;;;14.00;98.00;;;;;;5071718;28;20992;-62
2023/05/01 08:39:45;;;;;;;7.17;3.97;;;14.10;98.00;;;;;;5070551;28;20484;-62
2023/05/01 08:42:13;;;;;;;9.93;5.00;;;14.20;98.00;;;;;;5071800;28;20459;-61
2023/05/01 08:44:42;;;;;;;7.87;4.30;;;14.20;98.00;;;;;;5072213;28;20866;-62
2023/05/01 08:47:13;;;;;;;7.07;3.73;;;14.10;98.00;;;;;;5072073;28;20481;-61
2023/05/01 08:49:41;;;;;;;6.97;3.90;;;14.10;98.00;;;;;;5071356;28;20995;-61
2023/05/01 08:52:11;;;;;;;8.60;4.30;;;13.90;98.00;;;;;;5072007;28;20459;-62
2023/05/01 08:54:39;;;;;;;7.60;4.07;;;14.00;98.00;;;;;;5071800;28;20460;-62
2023/05/01 08:57:08;;;;;;;9.13;4.07;;;13.90;98.00;;;;;;5071822;28;20517;-62
2023/05/01 08:59:38;;;;;;;8.33;4.47;;;14.00;98.00;;;;;;5071797;28;20931;-62
2023/05/01 09:02:08;;;;;;;8.83;4.40;;;14.20;98.00;;;;;;5071959;28;20455;-62
2023/05/01 09:04:36;;;;;;;6.50;3.60;;;14.20;98.00;;;;;;5071850;28;20463;-63
2023/05/01 09:07:04;;;;;;;9.40;4.10;;;14.10;98.00;;;;;;5071824;28;20452;-61
2023/05/01 09:09:34;;;;;;;7.80;4.23;;;14.30;98.00;;;;;;5071726;28;20934;-61
2023/05/01 09:12:04;;;;;;;6.90;3.83;;;14.40;98.00;;;;;;5072114;28;20804;-63
2023/05/01 09:14:32;;;;;;;7.43;3.97;;;14.50;98.00;;;;;;5071924;28;20816;-63
2023/05/01 09:17:00;;;;;;;9.10;4.57;;;14.60;98.00;;;;;;5070631;28;20490;-64
2023/05/01 09:19:28;;;;;;;9.17;4.10;;;14.60;98.00;;;;;;5071937;28;21212;-64
2023/05/01 09:21:55;;;;;;;8.50;4.03;;;14.80;98.00;;;;;;5071665;28;20487;-63
2023/05/01 09:24:24;;;;;;;6.97;3.67;;;14.80;98.00;;;;;;5070749;28;20503;-64
2023/05/01 09:26:52;;;;;;;9.93;4.40;;;15.00;98.00;;;;;;5069106;28;21883;-61
2023/05/01 09:29:40;;;;;;;8.00;4.03;;;15.10;98.00;;;;;;5063697;28;20495;-61
2023/05/01 09:32:19;;;;;;;7.50;3.70;;;15.10;98.00;;;;;;5067454;28;20451;-63
2023/05/01 09:34:47;;;;;;;7.80;4.00;;;15.20;98.00;;;;;;5062374;28;20505;-62
2023/05/01 09:37:27;;;;;;;7.63;4.20;;;15.30;98.00;;;;;;5066125;28;20464;-62
2023/05/01 09:40:08;;;;;;;7.13;4.30;;;15.40;98.00;;;;;;5066491;28;20539;-61
2023/05/01 09:42:37;;;;;;;7.93;4.43;;;15.50;98.00;;;;;;5059637;28;20464;-63
2023/05/01 09:45:06;;;;;;;9.40;4.83;;;15.60;98.00;;;;;;5067379;28;20461;-63
2023/05/01 09:47:38;;;;;;;8.03;4.27;;;15.70;98.00;;;;;;5067193;28;20460;-62
2023/05/01 09:50:07;;;;;;;9.33;4.03;;;15.70;98.00;;;;;;5071313;28;20556;-62
2023/05/01 09:52:34;;;;;;;7.20;3.93;;;15.90;98.00;;;;;;5069643;28;20989;-62
2023/05/01 09:55:15;;;;;;;8.80;4.50;;;16.20;98.00;;;;;;5062943;28;20456;-64
2023/05/01 09:57:43;;;;;;;8.37;4.37;;;16.50;98.00;;;;;;5062602;28;20456;-64
2023/05/01 10:00:11;;;;;;;10.00;5.00;;;16.60;98.00;;;;;;5064408;28;20476;-62
2023/05/01 10:02:40;;;;;;;8.63;4.73;;;16.60;98.00;;;;;;5063431;28;20457;-63
2023/05/01 10:05:10;;;;;;;7.03;3.87;;;16.80;98.00;;;;;;5070755;28;20454;-62
2023/05/01 10:07:38;;;;;;;8.10;4.67;;;16.70;98.00;;;;;;5071467;28;20461;-62
2023/05/01 10:10:18;;;;;;;8.60;4.17;;;16.80;98.00;;;;;;5063289;28;20785;-62
2023/05/01 10:12:47;;;;;;;7.70;4.40;;;17.00;98.00;;;;;;5065179;28;20456;-64
2023/05/01 10:15:15;;;;;;;9.60;4.87;;;17.00;98.00;;;;;;5066895;28;20457;-64
2023/05/01 10:17:44;;;;;;;7.20;4.37;;;17.10;98.00;;;;;;5066465;28;20456;-64
2023/05/01 10:20:13;;;;;;;7.50;4.23;;;17.30;98.00;;;;;;5066428;28;20465;-64
2023/05/01 10:22:42;;;;;;;7.93;3.97;;;17.50;98.00;;;;;;5071116;28;20451;-64
2023/05/01 10:25:11;;;;;;;8.17;4.30;;;17.70;98.00;;;;;;5066665;28;20453;-63
2023/05/01 10:27:39;;;;;;;7.10;4.27;;;17.90;98.00;;;;;;5066172;28;20461;-63
2023/05/01 10:30:08;;;;;;;8.77;4.20;;;18.00;98.00;;;;;;5070483;28;20493;-63
2023/05/01 10:32:36;;;;;;;7.60;4.17;;;18.10;98.00;;;;;;5069351;28;20535;-63
2023/05/01 10:35:11;;;;;;;8.40;4.50;;;18.10;98.00;;;;;;5065619;28;20472;-62
2023/05/01 10:37:44;;;;;;;8.77;4.67;;;18.20;98.00;;;;;;5065179;28;21133;-63
2023/05/01 10:40:48;;;;;;;9.60;4.67;;;18.30;98.00;;;;;;5066570;28;20484;-63
2023/05/01 10:43:27;;;;;;;7.43;4.20;;;18.20;98.00;;;;;;5067161;28;21034;-63
2023/05/01 10:45:55;;;;;;;8.87;4.00;;;18.30;98.00;;;;;;5065819;28;20448;-63
2023/05/01 10:48:56;;;;;;;7.50;4.03;;;18.30;98.00;;;;;;5065600;28;20830;-62
2023/05/01 10:51:26;;;;;;;7.30;3.67;;;18.30;98.00;;;;;;5073384;28;20505;-64
2023/05/01 10:54:27;;;;;;;6.80;4.40;;;18.40;98.00;;;;;;5073533;28;20459;-63
2023/05/01 10:56:55;;;;;;;8.10;4.23;;;18.50;98.00;;;;;;5073433;28;21136;-63
2023/05/01 10:59:23;;;;;;;9.57;4.60;;;18.50;98.00;;;;;;5074275;28;20460;-63
2023/05/01 11:01:51;;;;;;;6.80;4.10;;;18.60;98.00;;;;;;5072429;28;20484;-63
2023/05/01 11:04:54;;;;;;;9.57;4.50;;;18.60;98.00;;;;;;5073812;28;20492;-63
2023/05/01 11:07:25;;;;;;;10.87;4.10;;;18.60;98.00;;;;;;5074720;28;20520;-63
2023/05/01 11:09:56;;;;;;;6.67;3.90;;;18.50;98.00;;;;;;5073168;28;20553;-63
2023/05/01 11:12:51;;;;;;;10.67;4.27;;;18.40;98.00;;;;;;5072685;28;20528;-63
2023/05/01 11:15:29;;;;;;;17.30;4.40;;;18.50;98.00;;;;;;5073109;28;20457;-63
2023/05/01 11:17:57;;;;;;;8.43;4.67;;;18.50;98.00;;;;;;5073152;28;20460;-63
2023/05/01 11:20:50;;;;;;;6.47;3.73;;;18.40;98.00;;;;;;5072923;28;20448;-63
2023/05/01 11:23:24;;;;;;;7.10;3.63;;;18.30;98.00;;;;;;5072970;28;20464;-63
2023/05/01 11:26:07;;;;;;;6.00;3.67;;;18.20;98.00;;;;;;5073349;28;20479;-63
2023/05/01 11:28:34;;;;;;;7.10;3.87;;;18.10;98.00;;;;;;5073136;28;20876;-63
2023/05/01 11:31:02;;;;;;;5.33;3.57;;;17.90;98.00;;;;;;5072886;28;20456;-63
2023/05/01 11:33:30;;;;;;;5.60;3.60;;;17.90;98.00;;;;;;5073062;28;20951;-63
2023/05/01 11:36:03;;;;;;;8.47;4.40;;;18.00;98.00;;;;;;5072823;28;20506;-63
2023/05/01 11:38:31;;;;;;;8.20;4.37;;;18.10;98.00;;;;;;5072843;28;20463;-63
2023/05/01 11:41:00;;;;;;;6.43;3.93;;;18.20;98.00;;;;;;5072694;28;20487;-63
2023/05/01 11:43:29;;;;;;;7.37;4.13;;;18.20;98.00;;;;;;5072652;28;20484;-63
2023/05/01 11:46:02;;;;;;;7.73;4.00;;;18.00;98.00;;;;;;5072634;28;20449;-63
2023/05/01 11:48:30;;;;;;;7.07;3.90;;;18.00;98.00;;;;;;5072673;28;20453;-63
2023/05/01 11:50:57;;;;;;;6.67;3.93;;;18.10;98.00;;;;;;5072515;28;20482;-63
2023/05/01 11:53:25;;;;;;;6.40;3.70;;;18.10;98.00;;;;;;5072417;28;20985;-63
2023/05/01 11:55:53;;;;;;;6.53;3.87;;;18.10;98.00;;;;;;5072478;28;20544;-63
2023/05/01 11:58:32;;;;;;;9.70;3.30;;;18.20;98.00;;;;;;5072156;28;20506;-63
2023/05/01 12:00:59;;;;;;;9.13;4.57;;;18.20;98.00;;;;;;5072582;28;20508;-63
2023/05/01 12:03:27;;;;;;;8.97;4.20;;;18.10;98.00;;;;;;5072332;28;20457;-63
2023/05/01 12:05:54;;;;;;;7.20;3.90;;;17.90;98.00;;;;;;5072274;28;20456;-63
2023/05/01 12:08:22;;;;;;;7.40;4.27;;;17.90;98.00;;;;;;5072167;28;20456;-63
2023/05/01 12:10:51;;;;;;;8.13;4.27;;;17.90;98.00;;;;;;5072172;28;20462;-63
2023/05/01 12:13:20;;;;;;;6.70;3.67;;;17.90;98.00;;;;;;5072203;28;20543;-63
2023/05/01 12:15:50;;;;;;;6.33;3.80;;;17.80;98.00;;;;;;5072205;28;20456;-63
2023/05/01 12:18:18;;;;;;;6.53;3.97;;;17.90;98.00;;;;;;5072642;28;20854;-63
2023/05/01 12:20:47;;;;;;;8.40;4.10;;;18.00;98.00;;;;;;5072099;28;20449;-63
2023/05/01 12:23:16;;;;;;;8.57;4.10;;;18.00;98.00;;;;;;5071139;28;20456;-63
2023/05/01 12:25:44;;;;;;;6.50;3.90;;;18.00;98.00;;;;;;5071960;28;20495;-63
2023/05/01 12:28:14;;;;;;;8.93;3.93;;;18.20;98.00;;;;;;5071761;28;20456;-63
2023/05/01 12:30:44;;;;;;;7.37;4.17;;;18.10;98.00;;;;;;5071795;28;20463;-63
2023/05/01 12:33:13;;;;;;;9.90;4.30;;;18.20;98.00;;;;;;5071975;28;20865;-63
2023/05/01 12:35:41;;;;;;;8.17;4.23;;;18.30;98.00;;;;;;5071603;28;20803;-63
2023/05/01 12:38:13;;;;;;;7.03;4.07;;;18.30;98.00;;;;;;5071767;28;20453;-63
2023/05/01 12:40:49;;;;;;;9.00;4.23;;;18.30;98.00;;;;;;5071310;28;20982;-63
2023/05/01 12:43:16;;;;;;;7.27;4.20;;;18.30;98.00;;;;;;5071732;28;20832;-63
2023/05/01 12:45:45;;;;;;;11.30;4.63;;;18.50;98.00;;;;;;5071629;28;20496;-63
2023/05/01 12:48:14;;;;;;;7.00;4.13;;;18.70;98.00;;;;;;5071473;28;20457;-63
2023/05/01 12:50:41;;;;;;;6.83;3.77;;;19.00;98.00;;;;;;5071753;28;20974;-63
2023/05/01 12:53:10;;;;;;;6.47;3.90;;;19.10;98.00;;;;;;5071507;28;20831;-63
2023/05/01 12:55:45;;;;;;;7.93;4.20;;;19.10;98.00;;;;;;5071406;28;20449;-63
2023/05/01 12:58:13;;;;;;;6.57;3.90;;;19.10;98.00;;;;;;5071194;28;20530;-63
2023/05/01 13:00:48;;;;;;;6.67;4.17;;;19.00;98.00;;;;;;5071390;28;20822;-63
2023/05/01 13:03:24;;;;;;;6.60;3.83;;;19.30;98.00;;;;;;5071044;28;20455;-63